Time;durP1;ratioP1;P1;durP2;ratioP2;P2;SDS_P1;SDS_P2;PMS_P1;PMS_P2;Temp;Humidity;BMP_temperature;BMP_pressure;BME280_temperature;BME280_humidity;BME280_pressure;Samples;Min_cycle;Max_cycle;Signal;HPM_P1;HPM_P2
2022/10/22 00:00:35;;;;;;;4.22;1.48;;;;;;;15.66;78.05;99519.84;1087536;54;20161;-83
2022/10/22 00:01:40;;;;;;;4.43;1.00;;;;;;;15.59;78.51;99522.44;1089096;39;20566;-81
2022/10/22 00:02:42;;;;;;;2.83;1.02;;;;;;;15.73;77.87;99520.72;1087552;54;20035;-82
2022/10/22 00:03:48;;;;;;;3.03;1.30;;;;;;;15.73;77.91;99515.34;1087678;54;20031;-80
2022/10/22 00:04:50;;;;;;;3.55;1.38;;;;;;;15.81;77.80;99527.88;1087670;54;20061;-80
2022/10/22 00:05:54;;;;;;;3.08;1.10;;;;;;;15.87;77.70;99518.22;1087602;54;20047;-82
2022/10/22 00:06:55;;;;;;;3.92;1.30;;;;;;;15.97;77.25;99518.69;1087702;54;20065;-81
2022/10/22 00:08:02;;;;;;;3.65;1.20;;;;;;;16.04;76.58;99516.94;1087613;54;20077;-81
2022/10/22 00:09:04;;;;;;;4.55;1.20;;;;;;;16.05;76.93;99505.13;1087708;54;20042;-81
2022/10/22 00:10:10;;;;;;;3.95;2.10;;;;;;;16.03;77.16;99515.25;1087536;54;20635;-81
2022/10/22 00:11:16;;;;;;;4.68;1.85;;;;;;;15.83;77.36;99524.97;1087652;54;20077;-83
2022/10/22 00:12:22;;;;;;;4.55;1.50;;;;;;;15.95;76.95;99525.31;1087600;54;20040;-80
2022/10/22 00:13:26;;;;;;;4.28;1.30;;;;;;;15.73;77.58;99523.44;1087678;54;20034;-82
2022/10/22 00:14:30;;;;;;;4.15;1.38;;;;;;;15.81;77.29;99522.47;1087673;54;20034;-82
2022/10/22 00:15:32;;;;;;;2.97;1.10;;;;;;;15.83;77.12;99520.41;1087639;54;20709;-81
2022/10/22 00:16:39;;;;;;;4.00;0.90;;;;;;;15.77;77.35;99523.06;1087636;54;20030;-81
2022/10/22 00:17:40;;;;;;;4.38;1.00;;;;;;;15.75;77.30;99524.09;1087708;54;20042;-82
2022/10/22 00:18:44;;;;;;;4.60;1.25;;;;;;;15.73;76.49;99520.72;1087805;54;20054;-83
2022/10/22 00:19:46;;;;;;;5.10;1.30;;;;;;;15.65;76.47;99523.56;1088300;39;20648;-81
2022/10/22 00:20:53;;;;;;;2.60;1.10;;;;;;;15.69;75.97;99524.00;1087720;54;20057;-81
2022/10/22 00:21:54;;;;;;;3.00;0.73;;;;;;;15.71;75.94;99519.25;1087837;47;20977;-80
2022/10/22 00:22:59;;;;;;;2.47;0.80;;;;;;;15.73;75.24;99520.72;1087787;54;20026;-81
2022/10/22 00:24:03;;;;;;;3.17;0.80;;;;;;;15.65;75.00;99509.22;1087738;54;20026;-82
2022/10/22 00:25:08;;;;;;;2.45;0.80;;;;;;;15.72;75.16;99510.97;1089211;39;20284;-81
2022/10/22 00:26:10;;;;;;;2.90;0.60;;;;;;;15.80;74.93;99512.72;1087825;54;20042;-81
2022/10/22 00:27:18;;;;;;;2.63;0.80;;;;;;;15.84;74.34;99515.91;1087757;54;20034;-81
2022/10/22 00:28:20;;;;;;;2.60;0.80;;;;;;;15.61;74.91;99519.56;1087740;54;20061;-81
2022/10/22 00:29:25;;;;;;;2.80;0.82;;;;;;;15.52;74.56;99513.47;1087732;54;20694;-81
2022/10/22 00:30:30;;;;;;;1.85;0.65;;;;;;;15.68;74.33;99516.94;1088651;46;20061;-80
2022/10/22 00:31:39;;;;;;;1.85;0.65;;;;;;;15.59;74.37;99524.28;1087727;54;20030;-80
2022/10/22 00:32:41;;;;;;;1.85;0.65;;;;;;;15.66;74.11;99518.97;1087035;54;20745;-82
2022/10/22 00:33:48;;;;;;;2.70;0.77;;;;;;;15.52;74.30;99518.00;1087151;54;20599;-81
2022/10/22 00:34:52;;;;;;;1.75;0.60;;;;;;;15.60;74.46;99512.50;1087740;54;20038;-83
2022/10/22 00:35:56;;;;;;;2.97;0.85;;;;;;;15.59;74.29;99518.91;1089082;46;20062;-81
2022/10/22 00:36:58;;;;;;;2.55;0.70;;;;;;;15.41;74.76;99536.31;1087775;54;20066;-80
2022/10/22 00:38:02;;;;;;;5.53;0.90;;;;;;;15.47;74.74;99533.91;1087647;54;20034;-80
2022/10/22 00:39:06;;;;;;;4.03;0.93;;;;;;;15.43;74.51;99547.75;1087609;54;20039;-81
2022/10/22 00:40:17;;;;;;;3.95;0.98;;;;;;;15.28;75.29;99553.16;1087130;54;20031;-81
2022/10/22 00:41:22;;;;;;;3.20;0.98;;;;;;;15.28;75.79;99571.19;1087693;46;20034;-80
2022/10/22 00:42:31;;;;;;;3.17;0.80;;;;;;;15.51;75.24;99578.28;1087791;54;20126;-80
2022/10/22 00:43:33;;;;;;;2.03;0.75;;;;;;;15.64;74.82;99580.31;1087815;54;20046;-80
2022/10/22 00:45:09;;;;;;;2.78;0.80;;;;;;;15.60;75.17;99583.41;1087846;54;20057;-80
2022/10/22 00:46:20;;;;;;;2.97;0.90;;;;;;;15.56;75.38;99587.47;1087630;54;20659;-80
2022/10/22 00:47:29;;;;;;;3.97;0.73;;;;;;;15.60;75.33;99583.41;1087634;54;20654;-81
2022/10/22 00:48:34;;;;;;;4.00;0.90;;;;;;;15.52;76.04;99582.66;1087503;54;20046;-81
2022/10/22 00:49:39;;;;;;;5.20;1.25;;;;;;;15.33;76.30;99576.00;1087425;54;20035;-81
2022/10/22 00:50:47;;;;;;;2.85;1.02;;;;;;;15.39;76.52;99573.41;1087716;54;20062;-81
2022/10/22 00:51:49;;;;;;;2.88;1.00;;;;;;;15.39;76.33;99568.03;1087861;54;20049;-81
2022/10/22 00:52:56;;;;;;;2.40;0.90;;;;;;;15.48;75.69;99567.91;1087804;54;20041;-82
2022/10/22 00:54:06;;;;;;;2.13;0.70;;;;;;;15.41;75.20;99557.88;1087677;54;20049;-82
2022/10/22 00:55:15;;;;;;;3.08;0.90;;;;;;;15.39;75.27;99551.00;1088495;39;20599;-81
2022/10/22 00:56:17;;;;;;;2.72;0.90;;;;;;;15.51;75.49;99543.28;1090080;39;20507;-81
2022/10/22 00:57:24;;;;;;;3.92;1.05;;;;;;;15.55;75.04;99539.19;1087600;54;20035;-81
2022/10/22 00:58:32;;;;;;;3.38;1.17;;;;;;;15.49;75.04;99542.66;1087699;54;20857;-80
2022/10/22 00:59:40;;;;;;;2.40;0.77;;;;;;;15.55;74.96;99533.81;1087614;54;20030;-81
2022/10/22 01:00:42;;;;;;;3.22;1.08;;;;;;;15.55;74.97;99536.50;1087506;54;20039;-81
2022/10/22 01:01:46;;;;;;;2.28;0.80;;;;;;;15.59;74.92;99532.38;1087632;54;20108;-80
2022/10/22 01:02:52;;;;;;;1.85;0.73;;;;;;;15.62;74.60;99534.69;1087398;54;20761;-81
2022/10/22 01:03:56;;;;;;;3.13;1.08;;;;;;;15.61;74.63;99538.41;1087598;54;20038;-81
2022/10/22 01:05:01;;;;;;;3.78;0.80;;;;;;;15.46;74.22;99534.94;1087660;54;20027;-81
2022/10/22 01:06:07;;;;;;;2.40;0.70;;;;;;;15.56;74.15;99538.16;1087639;54;20026;-81
2022/10/22 01:07:14;;;;;;;2.60;0.80;;;;;;;15.53;73.98;99535.84;1088076;39;20595;-81
2022/10/22 01:08:28;;;;;;;2.95;0.68;;;;;;;15.49;74.39;99527.31;1087550;54;20042;-82
2022/10/22 01:09:41;;;;;;;3.30;0.82;;;;;;;15.57;74.15;99526.38;1088464;39;20542;-81
2022/10/22 01:10:59;;;;;;;1.88;0.60;;;;;;;15.53;74.25;99525.06;1087545;54;20950;-82
2022/10/22 01:12:07;;;;;;;2.17;0.70;;;;;;;15.51;74.46;99525.25;1088478;39;20929;-81
2022/10/22 01:13:24;;;;;;;1.95;0.70;;;;;;;15.53;73.98;99519.69;1087592;54;20030;-81
2022/10/22 01:14:35;;;;;;;2.03;0.70;;;;;;;15.47;74.30;99518.56;1087481;54;20030;-81
2022/10/22 01:15:47;;;;;;;2.95;0.80;;;;;;;15.52;74.09;99523.41;1087604;54;20042;-81
2022/10/22 01:17:05;;;;;;;2.47;0.93;;;;;;;15.41;74.12;99527.44;1087569;54;20659;-81
2022/10/22 01:18:14;;;;;;;2.65;0.70;;;;;;;15.40;74.33;99536.53;1087590;54;20031;-81
2022/10/22 01:19:35;;;;;;;4.82;1.55;;;;;;;15.27;74.80;99547.97;1087558;54;20037;-81
2022/10/22 01:20:53;;;;;;;2.83;0.80;;;;;;;15.21;75.36;99551.44;1087445;54;20038;-81
2022/10/22 01:22:03;;;;;;;2.85;0.70;;;;;;;15.18;75.40;99546.41;1087456;54;20030;-80
2022/10/22 01:23:20;;;;;;;3.13;0.80;;;;;;;15.07;75.73;99548.53;1089742;39;20686;-80
2022/10/22 01:24:40;;;;;;;1.60;0.60;;;;;;;15.03;76.17;99547.22;1087547;54;20038;-81
2022/10/22 01:25:52;;;;;;;3.53;0.80;;;;;;;14.91;76.84;99544.19;1087482;54;20096;-79
2022/10/22 01:27:10;;;;;;;3.60;1.05;;;;;;;14.89;77.34;99548.09;1087522;54;20054;-80
2022/10/22 01:28:22;;;;;;;2.42;0.88;;;;;;;14.95;77.05;99550.03;1087576;54;20034;-81
2022/10/22 01:29:32;;;;;;;2.10;0.85;;;;;;;14.96;76.76;99546.31;1087581;54;20034;-80
2022/10/22 01:30:37;;;;;;;1.98;0.82;;;;;;;14.95;77.36;99548.19;1091447;39;20859;-80
2022/10/22 01:31:51;;;;;;;4.80;1.00;;;;;;;15.01;77.03;99549.28;1088424;39;20643;-80
2022/10/22 01:32:57;;;;;;;3.78;0.90;;;;;;;14.93;77.49;99550.22;1087486;54;20038;-82
2022/10/22 01:34:06;;;;;;;3.33;0.90;;;;;;;15.07;77.13;99545.84;1089147;46;20119;-80
2022/10/22 01:35:11;;;;;;;4.45;1.08;;;;;;;15.04;76.95;99545.41;1087495;54;20045;-80
2022/10/22 01:36:17;;;;;;;2.47;0.80;;;;;;;14.92;77.39;99551.22;1087574;54;20030;-80
2022/10/22 01:37:23;;;;;;;3.28;1.00;;;;;;;14.98;77.32;99544.28;1087982;39;20965;-80
2022/10/22 01:38:28;;;;;;;3.05;0.80;;;;;;;15.02;77.30;99555.50;1088435;47;20042;-80
2022/10/22 01:39:30;;;;;;;2.13;0.80;;;;;;;14.89;77.74;99564.22;1087768;47;20034;-80
2022/10/22 01:40:37;;;;;;;2.28;0.85;;;;;;;14.81;77.97;99566.00;1087327;54;20090;-80
2022/10/22 01:41:44;;;;;;;3.03;0.90;;;;;;;14.97;77.94;99567.66;1087414;54;20111;-80
2022/10/22 01:42:59;;;;;;;2.33;0.63;;;;;;;15.12;77.02;99567.66;1087480;54;20026;-80
2022/10/22 01:44:01;;;;;;;2.30;0.98;;;;;;;15.22;76.88;99561.16;1087452;54;20065;-81
2022/10/22 01:45:15;;;;;;;4.43;0.82;;;;;;;15.19;76.73;99559.66;1087597;54;20030;-80
2022/10/22 01:46:24;;;;;;;2.90;0.80;;;;;;;15.21;76.69;99556.81;1087408;54;20038;-81
2022/10/22 01:47:44;;;;;;;2.97;0.90;;;;;;;15.22;76.57;99555.75;1087835;47;20037;-81
2022/10/22 01:48:59;;;;;;;3.13;0.73;;;;;;;15.29;76.67;99568.28;1087482;54;20042;-80
2022/10/22 01:50:30;;;;;;;2.33;0.63;;;;;;;15.25;76.40;99568.84;1087437;54;20042;-80
2022/10/22 01:51:52;;;;;;;2.38;0.80;;;;;;;15.25;76.37;99558.94;1092702;31;20670;-80
2022/10/22 01:53:14;;;;;;;2.42;0.70;;;;;;;15.16;76.97;99561.91;1087565;54;20030;-80
2022/10/22 01:54:26;;;;;;;2.55;0.80;;;;;;;15.25;76.49;99566.16;1087542;54;20035;-81
2022/10/22 01:55:37;;;;;;;2.60;0.80;;;;;;;15.31;76.46;99569.97;1087454;54;20726;-80
2022/10/22 01:56:52;;;;;;;3.03;0.70;;;;;;;15.12;77.38;99572.22;1087422;54;20034;-80
2022/10/22 01:58:05;;;;;;;1.85;0.60;;;;;;;15.24;76.83;99580.66;1087598;47;20038;-80
2022/10/22 01:59:13;;;;;;;4.10;0.75;;;;;;;15.27;77.05;99583.78;1087448;54;20749;-80
2022/10/22 02:00:22;;;;;;;1.35;0.55;;;;;;;15.27;76.66;99582.97;1087408;54;20055;-81
2022/10/22 02:01:31;;;;;;;4.13;1.33;;;;;;;15.22;77.18;99585.38;1088081;46;20051;-81
2022/10/22 02:02:41;;;;;;;2.17;0.52;;;;;;;15.28;76.55;99588.16;1087492;54;20102;-81
2022/10/22 02:03:50;;;;;;;;;;;;;;;15.15;77.20;99581.75;1087639;54;20031;-80
2022/10/22 02:05:00;;;;;;;1.85;0.65;;;;;;;15.25;76.75;99595.78;1087555;54;19942;-80
2022/10/22 02:06:09;;;;;;;3.45;1.00;;;;;;;14.96;78.12;99597.44;1087428;54;20828;-80
2022/10/22 02:07:22;;;;;;;2.53;0.90;;;;;;;14.91;78.50;99602.56;1087421;54;20030;-80
2022/10/22 02:08:28;;;;;;;4.35;0.80;;;;;;;15.04;78.04;99605.44;1087397;54;20666;-80
2022/10/22 02:09:34;;;;;;;2.25;0.77;;;;;;;15.11;77.63;99606.34;1087454;54;20030;-80
2022/10/22 02:10:37;;;;;;;2.90;0.73;;;;;;;14.97;78.32;99608.00;1087310;54;20065;-80
2022/10/22 02:11:43;;;;;;;2.78;0.80;;;;;;;15.03;77.97;99609.13;1087457;54;20057;-80
2022/10/22 02:12:47;;;;;;;4.10;0.90;;;;;;;15.04;78.26;99613.50;1087417;54;20058;-79
2022/10/22 02:13:55;;;;;;;1.95;0.68;;;;;;;15.15;77.58;99606.84;1087458;54;20771;-80
2022/10/22 02:14:59;;;;;;;2.90;0.80;;;;;;;15.19;77.33;99601.91;1088663;39;21093;-80
2022/10/22 02:16:13;;;;;;;3.00;0.70;;;;;;;15.19;77.56;99601.91;1087754;54;20061;-80
2022/10/22 02:17:20;;;;;;;2.60;0.60;;;;;;;15.22;77.42;99607.78;1087816;54;20034;-81
2022/10/22 02:18:28;;;;;;;3.83;0.80;;;;;;;15.17;77.30;99598.56;1087799;54;20703;-80
2022/10/22 02:19:40;;;;;;;2.90;0.70;;;;;;;15.13;77.88;99606.19;1087816;54;20030;-80
2022/10/22 02:20:45;;;;;;;2.05;0.50;;;;;;;15.15;77.53;99601.47;1087726;54;20030;-80
2022/10/22 02:21:48;;;;;;;3.53;0.70;;;;;;;15.08;77.68;99600.50;1087880;54;20030;-80
2022/10/22 02:22:56;;;;;;;2.72;0.85;;;;;;;15.00;78.00;99604.16;1087783;54;20034;-80
2022/10/22 02:24:01;;;;;;;2.42;0.80;;;;;;;14.92;78.60;99599.66;1087762;54;20046;-80
2022/10/22 02:25:09;;;;;;;3.15;1.15;;;;;;;15.02;78.38;99603.94;1087694;54;20057;-80
2022/10/22 02:26:19;;;;;;;2.95;0.60;;;;;;;14.96;78.53;99605.53;1087816;54;20046;-80
2022/10/22 02:27:31;;;;;;;1.75;0.50;;;;;;;15.12;77.84;99597.25;1087809;54;20038;-80
2022/10/22 02:28:38;;;;;;;2.33;0.63;;;;;;;15.18;77.50;99597.56;1087672;54;20046;-80
2022/10/22 02:29:51;;;;;;;1.85;0.70;;;;;;;15.07;78.12;99601.53;1087748;54;20042;-80
2022/10/22 02:30:56;;;;;;;0.90;0.50;;;;;;;15.13;78.24;99598.13;1087628;54;20046;-80
2022/10/22 02:32:06;;;;;;;3.10;0.73;;;;;;;15.18;77.61;99601.06;1087751;54;20031;-81
2022/10/22 02:33:12;;;;;;;2.13;0.60;;;;;;;15.17;77.89;99593.19;1088576;31;20776;-80
2022/10/22 02:34:21;;;;;;;2.65;0.70;;;;;;;15.11;77.80;99597.47;1087511;54;20086;-80
2022/10/22 02:35:27;;;;;;;2.58;0.60;;;;;;;15.20;78.01;99592.81;1087647;54;20030;-80
2022/10/22 02:36:32;;;;;;;2.17;0.70;;;;;;;15.23;77.61;99577.13;1087754;54;20034;-80
2022/10/22 02:37:34;;;;;;;1.85;0.60;;;;;;;15.28;77.21;99587.34;1087807;54;20039;-82
2022/10/22 02:38:40;;;;;;;2.85;0.93;;;;;;;15.29;77.31;99586.31;1087773;54;20041;-80
2022/10/22 02:39:43;;;;;;;1.58;0.63;;;;;;;15.31;77.01;99586.94;1087730;54;20036;-80
2022/10/22 02:40:47;;;;;;;2.25;0.70;;;;;;;15.22;77.03;99588.91;1087577;54;20047;-81
2022/10/22 02:41:49;;;;;;;2.35;0.80;;;;;;;15.27;77.36;99578.41;1087690;54;20034;-80
2022/10/22 02:42:54;;;;;;;2.50;0.70;;;;;;;15.35;76.87;99568.59;1087778;54;20030;-80
2022/10/22 02:43:56;;;;;;;1.73;0.60;;;;;;;15.35;76.98;99571.28;1087702;54;20061;-80
2022/10/22 02:45:01;;;;;;;1.80;0.60;;;;;;;15.27;77.21;99561.44;1087768;54;20852;-80
2022/10/22 02:46:05;;;;;;;2.92;0.90;;;;;;;15.30;76.84;99569.16;1089201;39;20583;-79
2022/10/22 02:47:14;;;;;;;1.85;0.63;;;;;;;15.28;76.71;99560.41;1087707;54;20042;-80
2022/10/22 02:48:15;;;;;;;1.73;0.70;;;;;;;15.33;76.55;99566.06;1087777;54;20065;-80
2022/10/22 02:49:22;;;;;;;1.80;0.70;;;;;;;15.18;76.91;99573.31;1087635;54;20027;-80
2022/10/22 02:50:23;;;;;;;2.42;0.80;;;;;;;15.17;77.25;99568.97;1087642;54;20038;-81
2022/10/22 02:51:27;;;;;;;3.10;0.52;;;;;;;15.16;76.96;99564.59;1087743;54;20034;-80
2022/10/22 02:52:31;;;;;;;1.25;0.60;;;;;;;15.28;76.53;99560.41;1087796;54;20031;-80
2022/10/22 02:53:37;;;;;;;2.35;0.50;;;;;;;15.15;76.80;99558.38;1087711;54;20037;-80
2022/10/22 02:54:38;;;;;;;1.02;0.50;;;;;;;15.33;76.62;99555.28;1087632;54;20034;-79
2022/10/22 02:55:42;;;;;;;1.52;0.50;;;;;;;15.36;76.31;99549.53;1087706;54;20038;-79
2022/10/22 02:56:44;;;;;;;1.48;0.50;;;;;;;15.37;76.21;99548.50;1087717;54;20046;-80
2022/10/22 02:57:48;;;;;;;1.38;0.50;;;;;;;15.36;76.00;99546.00;1087771;54;20035;-80
2022/10/22 02:58:49;;;;;;;2.10;0.57;;;;;;;15.34;76.01;99548.88;1087634;54;20050;-81
2022/10/22 02:59:54;;;;;;;1.92;0.70;;;;;;;15.33;75.63;99543.69;1087681;47;20082;-80
2022/10/22 03:00:55;;;;;;;1.95;0.60;;;;;;;15.33;75.72;99549.91;1087619;54;20038;-80
2022/10/22 03:02:00;;;;;;;3.03;0.70;;;;;;;15.37;75.94;99545.81;1087831;54;20107;-81
2022/10/22 03:03:04;;;;;;;1.90;0.63;;;;;;;15.47;75.37;99539.31;1087680;54;20061;-80
2022/10/22 03:04:08;;;;;;;1.95;0.70;;;;;;;15.44;75.43;99541.34;1087655;54;20042;-80
2022/10/22 03:05:09;;;;;;;2.17;0.65;;;;;;;15.41;75.67;99540.88;1087553;54;20037;-80
2022/10/22 03:06:14;;;;;;;1.80;0.60;;;;;;;15.45;75.46;99542.16;1087758;54;20070;-80
2022/10/22 03:07:15;;;;;;;2.40;0.50;;;;;;;15.47;75.23;99550.06;1087744;54;20046;-80
2022/10/22 03:08:21;;;;;;;1.27;0.50;;;;;;;15.49;75.11;99554.25;1087668;54;20634;-80
2022/10/22 03:09:23;;;;;;;2.67;0.82;;;;;;;15.46;75.17;99556.47;1087648;54;20123;-81
2022/10/22 03:10:27;;;;;;;3.15;0.80;;;;;;;15.43;75.56;99555.84;1089557;39;20958;-80
2022/10/22 03:11:29;;;;;;;2.60;0.73;;;;;;;15.51;75.03;99543.28;1087753;54;20058;-80
2022/10/22 03:12:35;;;;;;;2.42;0.70;;;;;;;15.55;74.86;99549.97;1087647;54;20947;-80
2022/10/22 03:13:37;;;;;;;2.20;0.70;;;;;;;15.54;74.86;99548.28;1087703;54;20034;-80
2022/10/22 03:14:41;;;;;;;2.13;0.80;;;;;;;15.56;74.85;99546.25;1087685;54;20031;-81
2022/10/22 03:15:43;;;;;;;2.85;0.68;;;;;;;15.54;75.40;99556.38;1087650;54;20042;-80
2022/10/22 03:16:47;;;;;;;2.78;0.75;;;;;;;15.47;75.24;99558.97;1087684;54;20030;-81
2022/10/22 03:17:48;;;;;;;2.40;0.75;;;;;;;15.39;75.82;99551.88;1087637;54;20034;-81
2022/10/22 03:18:55;;;;;;;2.85;0.95;;;;;;;15.48;75.62;99554.44;1087791;54;20035;-80
2022/10/22 03:19:57;;;;;;;1.83;0.70;;;;;;;15.50;75.39;99558.63;1087684;54;20069;-80
2022/10/22 03:21:09;;;;;;;2.20;0.93;;;;;;;15.48;75.11;99549.88;1087637;54;20035;-81
2022/10/22 03:22:16;;;;;;;3.42;0.70;;;;;;;15.35;75.57;99549.72;1087696;54;20110;-82
2022/10/22 03:23:21;;;;;;;3.40;0.85;;;;;;;15.44;75.48;99548.59;1087740;54;20110;-80
2022/10/22 03:24:29;;;;;;;2.70;0.60;;;;;;;15.38;75.14;99550.19;1087695;54;20081;-80
2022/10/22 03:25:35;;;;;;;2.53;0.63;;;;;;;15.32;75.68;99544.72;1087631;54;20035;-85
2022/10/22 03:26:40;;;;;;;1.83;0.60;;;;;;;15.38;75.41;99550.19;1087666;54;20086;-81
2022/10/22 03:27:44;;;;;;;2.97;0.80;;;;;;;15.33;75.49;99551.78;1089519;39;20669;-81
2022/10/22 03:28:47;;;;;;;2.75;0.85;;;;;;;15.34;75.47;99548.88;1087705;54;20069;-81
2022/10/22 03:29:53;;;;;;;1.10;0.52;;;;;;;15.34;74.90;99548.88;1087767;54;20057;-81
2022/10/22 03:30:55;;;;;;;1.73;0.50;;;;;;;15.28;75.19;99541.56;1087805;54;20030;-80
2022/10/22 03:31:59;;;;;;;3.83;0.60;;;;;;;15.33;75.10;99541.81;1087730;54;20039;-81
2022/10/22 03:33:01;;;;;;;1.17;0.50;;;;;;;15.38;74.62;99557.41;1087831;54;20034;-81
2022/10/22 03:34:07;;;;;;;1.20;0.40;;;;;;;15.36;74.22;99548.69;1087832;54;20030;-81
2022/10/22 03:35:10;;;;;;;1.67;0.57;;;;;;;15.22;74.94;99550.38;1087017;54;20061;-80
2022/10/22 03:36:14;;;;;;;2.33;0.52;;;;;;;15.28;75.05;99547.78;1087708;54;20041;-81
2022/10/22 03:37:16;;;;;;;2.58;0.70;;;;;;;15.31;74.66;99541.16;1087682;54;20773;-81
2022/10/22 03:38:20;;;;;;;3.08;0.70;;;;;;;15.36;74.50;99546.00;1087723;54;20042;-80
2022/10/22 03:39:22;;;;;;;1.55;0.63;;;;;;;15.20;74.75;99536.28;1087696;54;20034;-81
2022/10/22 03:40:26;;;;;;;2.05;0.60;;;;;;;15.24;75.05;99524.97;1088545;39;21077;-80
2022/10/22 03:41:28;;;;;;;1.73;0.50;;;;;;;15.33;74.79;99533.75;1087592;54;20049;-80
2022/10/22 03:42:32;;;;;;;2.03;0.68;;;;;;;15.29;74.66;99527.09;1087633;54;20042;-81
2022/10/22 03:43:35;;;;;;;1.17;0.52;;;;;;;15.28;74.59;99534.31;1092970;31;20663;-80
2022/10/22 03:44:41;;;;;;;1.75;0.50;;;;;;;15.36;74.16;99530.69;1087685;54;20034;-80
2022/10/22 03:45:42;;;;;;;1.83;0.50;;;;;;;15.37;74.34;99535.06;1087676;54;20046;-81
2022/10/22 03:46:47;;;;;;;2.15;0.52;;;;;;;15.37;74.56;99524.28;1087676;54;20042;-80
2022/10/22 03:47:48;;;;;;;1.17;0.50;;;;;;;15.36;74.46;99509.13;1087696;54;20169;-80
2022/10/22 03:48:52;;;;;;;3.25;0.70;;;;;;;15.29;74.81;99505.53;1087666;54;20031;-82
2022/10/22 03:49:56;;;;;;;1.60;0.50;;;;;;;15.29;74.79;99494.78;1088944;39;20220;-81
2022/10/22 03:51:00;;;;;;;1.88;0.50;;;;;;;15.24;74.67;99489.09;1087790;46;20046;-81
2022/10/22 03:52:06;;;;;;;2.33;1.00;;;;;;;15.24;74.84;99475.63;1087742;54;20907;-81
2022/10/22 03:53:10;;;;;;;5.22;1.00;;;;;;;15.24;74.74;99478.34;1087613;54;20034;-81
2022/10/22 03:54:11;;;;;;;1.98;0.43;;;;;;;15.30;74.50;99480.28;1087657;54;20820;-80
2022/10/22 03:55:15;;;;;;;3.05;0.82;;;;;;;15.31;74.68;99490.00;1087670;54;20371;-80
2022/10/22 03:56:17;;;;;;;3.25;0.80;;;;;;;15.31;74.19;99500.78;1091693;39;20464;-80
2022/10/22 03:57:21;;;;;;;1.98;0.60;;;;;;;15.32;74.44;99513.22;1087664;54;20030;-81
2022/10/22 03:58:22;;;;;;;2.25;0.57;;;;;;;15.15;75.09;99523.38;1087596;54;20151;-81
2022/10/22 03:59:27;;;;;;;2.33;0.60;;;;;;;15.25;74.47;99523.94;1087744;54;20035;-81
2022/10/22 04:00:28;;;;;;;3.35;0.70;;;;;;;15.12;74.75;99529.97;1087533;54;20038;-80
2022/10/22 04:01:33;;;;;;;2.95;1.30;;;;;;;15.07;75.47;99529.69;1087640;54;20034;-81
2022/10/22 04:02:34;;;;;;;2.10;0.70;;;;;;;15.19;75.12;99530.06;1089635;39;20576;-80
2022/10/22 04:03:39;;;;;;;2.42;0.70;;;;;;;15.20;74.72;99526.34;1087562;54;20049;-80
2022/10/22 04:04:40;;;;;;;3.05;0.60;;;;;;;15.10;75.37;99528.47;1087618;54;20042;-81
2022/10/22 04:05:47;;;;;;;1.95;0.60;;;;;;;15.24;74.78;99533.03;1087631;54;20034;-81
2022/10/22 04:06:48;;;;;;;2.45;0.55;;;;;;;15.34;74.45;99538.13;1087714;54;20077;-81
2022/10/22 04:07:53;;;;;;;3.30;0.80;;;;;;;15.30;74.67;99536.84;1087632;54;20026;-80
2022/10/22 04:08:55;;;;;;;2.47;0.70;;;;;;;15.33;74.41;99544.53;1087584;54;20042;-81
2022/10/22 04:10:11;;;;;;;2.92;0.88;;;;;;;15.36;74.39;99549.53;1087621;54;20023;-81
2022/10/22 04:11:21;;;;;;;6.22;0.70;;;;;;;15.34;74.31;99558.84;1087739;54;20035;-81
2022/10/22 04:12:39;;;;;;;1.48;0.70;;;;;;;15.06;75.46;99576.47;1087165;54;20034;-81
2022/10/22 04:13:50;;;;;;;2.05;0.60;;;;;;;15.02;75.64;99594.00;1087623;54;20034;-80
2022/10/22 04:15:04;;;;;;;2.10;0.63;;;;;;;15.15;75.46;99587.16;1087138;54;20075;-80
2022/10/22 04:16:17;;;;;;;2.10;0.70;;;;;;;15.10;75.67;99591.25;1087264;54;20051;-81
2022/10/22 04:17:30;;;;;;;3.53;0.80;;;;;;;15.15;75.34;99597.91;1087232;54;20046;-81
2022/10/22 04:18:42;;;;;;;1.60;0.50;;;;;;;15.16;75.67;99591.50;1088604;39;20631;-80
2022/10/22 04:19:57;;;;;;;1.55;0.60;;;;;;;14.84;76.90;99606.97;1087648;54;20042;-81
2022/10/22 04:21:12;;;;;;;2.83;0.63;;;;;;;14.93;76.90;99603.19;1087724;39;20638;-81
2022/10/22 04:22:27;;;;;;;2.63;0.80;;;;;;;14.88;77.05;99609.13;1087642;54;20034;-81
2022/10/22 04:23:36;;;;;;;3.25;0.60;;;;;;;14.88;77.22;99602.91;1087141;54;20039;-80
2022/10/22 04:24:52;;;;;;;2.38;0.70;;;;;;;15.00;76.62;99600.59;1087311;54;20031;-80
2022/10/22 04:26:07;;;;;;;3.53;0.70;;;;;;;15.00;76.69;99589.84;1087604;54;20034;-81
2022/10/22 04:27:11;;;;;;;1.67;0.65;;;;;;;15.09;76.32;99596.81;1087237;54;20042;-82
2022/10/22 04:28:13;;;;;;;1.80;0.70;;;;;;;15.10;76.57;99587.72;1087392;54;20076;-80
2022/10/22 04:29:17;;;;;;;2.15;0.50;;;;;;;15.10;76.32;99596.63;1087642;54;20061;-80
2022/10/22 04:30:19;;;;;;;2.25;0.70;;;;;;;15.17;76.13;99590.50;1087465;54;20065;-80
2022/10/22 04:31:25;;;;;;;2.00;0.60;;;;;;;15.18;76.24;99594.88;1087593;54;20037;-81
2022/10/22 04:32:27;;;;;;;1.30;0.60;;;;;;;15.08;76.52;99590.59;1087635;54;20065;-80
2022/10/22 04:33:31;;;;;;;1.85;0.50;;;;;;;15.17;76.25;99588.63;1087583;54;20046;-81
2022/10/22 04:34:32;;;;;;;1.65;0.60;;;;;;;15.20;75.98;99582.88;1087614;54;20072;-81
2022/10/22 04:35:40;;;;;;;1.42;0.50;;;;;;;15.23;75.63;99590.59;1087132;54;20042;-80
2022/10/22 04:36:44;;;;;;;4.95;0.70;;;;;;;15.25;75.56;99593.94;1087516;54;20102;-80
2022/10/22 04:37:48;;;;;;;3.20;0.70;;;;;;;15.10;76.41;99596.63;1087427;54;20989;-81
2022/10/22 04:38:53;;;;;;;2.13;0.70;;;;;;;15.19;75.84;99602.75;1087615;54;20065;-80
2022/10/22 04:39:57;;;;;;;2.72;0.60;;;;;;;15.19;75.81;99604.63;1087544;54;20061;-81
2022/10/22 04:41:07;;;;;;;2.00;0.70;;;;;;;15.18;75.88;99611.03;1087371;54;20034;-80
2022/10/22 04:42:11;;;;;;;1.75;0.70;;;;;;;15.18;76.17;99602.94;1090549;39;21018;-80
2022/10/22 04:43:15;;;;;;;2.80;0.60;;;;;;;15.08;76.27;99609.44;1087575;54;20046;-80
2022/10/22 04:44:19;;;;;;;2.20;0.60;;;;;;;15.16;76.35;99605.78;1087647;54;20034;-80
2022/10/22 04:45:23;;;;;;;2.42;0.98;;;;;;;15.08;76.37;99613.97;1087510;54;20912;-80
2022/10/22 04:46:26;;;;;;;2.75;0.70;;;;;;;15.05;76.76;99620.56;1087555;54;20069;-79
2022/10/22 04:47:30;;;;;;;2.45;0.80;;;;;;;15.09;76.22;99621.88;1087619;54;20045;-80
2022/10/22 04:48:32;;;;;;;3.42;0.82;;;;;;;15.16;76.26;99623.81;1088247;39;21058;-80
2022/10/22 04:49:36;;;;;;;1.92;0.70;;;;;;;15.16;76.21;99621.13;1087565;54;20030;-80
2022/10/22 04:50:37;;;;;;;2.67;0.90;;;;;;;15.02;76.33;99629.00;1087484;54;20065;-80
2022/10/22 04:51:42;;;;;;;2.35;0.80;;;;;;;15.03;76.49;99622.59;1087555;54;20038;-80
2022/10/22 04:52:46;;;;;;;2.40;0.90;;;;;;;14.91;77.06;99616.00;1087598;54;20041;-81
2022/10/22 04:53:50;;;;;;;3.63;0.73;;;;;;;14.81;77.38;99617.13;1087570;54;20037;-80
2022/10/22 04:54:52;;;;;;;2.63;0.70;;;;;;;14.85;77.22;99619.41;1088547;39;20555;-80
2022/10/22 04:55:57;;;;;;;2.60;1.00;;;;;;;14.89;77.06;99623.44;1087550;54;20102;-80
2022/10/22 04:56:58;;;;;;;2.70;0.90;;;;;;;14.78;77.39;99624.72;1093662;31;20788;-80
2022/10/22 04:58:02;;;;;;;3.80;0.80;;;;;;;14.89;77.35;99626.13;1087618;54;20034;-80
2022/10/22 04:59:07;;;;;;;2.60;0.70;;;;;;;14.98;76.80;99625.03;1087626;54;20057;-81
2022/10/22 05:00:15;;;;;;;2.05;0.80;;;;;;;15.05;76.34;99630.50;1087544;54;20038;-80
2022/10/22 05:01:18;;;;;;;2.42;0.77;;;;;;;15.06;76.35;99635.69;1092620;39;20669;-80
2022/10/22 05:02:22;;;;;;;1.70;0.70;;;;;;;15.11;76.28;99640.53;1087499;54;20042;-80
2022/10/22 05:03:24;;;;;;;3.90;1.20;;;;;;;15.12;76.12;99637.63;1088703;31;20760;-80
2022/10/22 05:04:28;;;;;;;2.17;0.80;;;;;;;15.16;76.29;99638.09;1088554;46;20035;-80
2022/10/22 05:05:29;;;;;;;2.35;0.82;;;;;;;15.13;76.39;99647.38;1087467;54;20019;-80
2022/10/22 05:06:35;;;;;;;1.98;0.70;;;;;;;15.21;76.06;99651.03;1087437;54;20030;-80
2022/10/22 05:07:36;;;;;;;3.22;0.90;;;;;;;15.16;76.43;99648.06;1090560;39;20650;-80
2022/10/22 05:08:43;;;;;;;2.67;0.70;;;;;;;15.16;76.46;99658.81;1087525;54;20034;-80
2022/10/22 05:09:44;;;;;;;2.67;0.68;;;;;;;14.97;77.02;99648.38;1087504;54;20073;-80
2022/10/22 05:10:49;;;;;;;1.58;0.50;;;;;;;14.95;77.28;99652.28;1087421;54;20034;-81
2022/10/22 05:11:52;;;;;;;1.70;0.70;;;;;;;15.07;77.02;99660.75;1087573;54;20069;-80
2022/10/22 05:12:56;;;;;;;2.88;0.80;;;;;;;15.12;76.75;99659.19;1087476;54;20034;-80